地図

経路データ

SID SEASON NUMBER BASIN SUBBASIN NAME ISO_TIME NATURE LAT LON WMO_WIND WMO_PRES WMO_AGENCY TRACK_TYPE DIST2LAND LANDFALL IFLAG USA_AGENCY USA_ATCF_ID USA_LAT USA_LON USA_RECORD USA_STATUS USA_WIND USA_PRES USA_SSHS USA_R34_NE USA_R34_SE USA_R34_SW USA_R34_NW USA_R50_NE USA_R50_SE USA_R50_SW USA_R50_NW USA_R64_NE USA_R64_SE USA_R64_SW USA_R64_NW USA_POCI USA_ROCI USA_RMW USA_EYE TOKYO_LAT TOKYO_LON TOKYO_GRADE TOKYO_WIND TOKYO_PRES TOKYO_R50_DIR TOKYO_R50_LONG TOKYO_R50_SHORT TOKYO_R30_DIR TOKYO_R30_LONG TOKYO_R30_SHORT TOKYO_LAND CMA_LAT CMA_LON CMA_CAT CMA_WIND CMA_PRES HKO_LAT HKO_LON HKO_CAT HKO_WIND HKO_PRES NEWDELHI_LAT NEWDELHI_LON NEWDELHI_GRADE NEWDELHI_WIND NEWDELHI_PRES NEWDELHI_CI NEWDELHI_DP NEWDELHI_POCI REUNION_LAT REUNION_LON REUNION_TYPE REUNION_WIND REUNION_PRES REUNION_TNUM REUNION_CI REUNION_RMW REUNION_R34_NE REUNION_R34_SE REUNION_R34_SW REUNION_R34_NW REUNION_R50_NE REUNION_R50_SE REUNION_R50_SW REUNION_R50_NW REUNION_R64_NE REUNION_R64_SE REUNION_R64_SW REUNION_R64_NW BOM_LAT BOM_LON BOM_TYPE BOM_WIND BOM_PRES BOM_TNUM BOM_CI BOM_RMW BOM_R34_NE BOM_R34_SE BOM_R34_SW BOM_R34_NW BOM_R50_NE BOM_R50_SE BOM_R50_SW BOM_R50_NW BOM_R64_NE BOM_R64_SE BOM_R64_SW BOM_R64_NW BOM_ROCI BOM_POCI BOM_EYE BOM_POS_METHOD BOM_PRES_METHOD NADI_LAT NADI_LON NADI_CAT NADI_WIND NADI_PRES WELLINGTON_LAT WELLINGTON_LON WELLINGTON_WIND WELLINGTON_PRES DS824_LAT DS824_LON DS824_STAGE DS824_WIND DS824_PRES TD9636_LAT TD9636_LON TD9636_STAGE TD9636_WIND TD9636_PRES TD9635_LAT TD9635_LON TD9635_WIND TD9635_PRES TD9635_ROCI NEUMANN_LAT NEUMANN_LON NEUMANN_CLASS NEUMANN_WIND NEUMANN_PRES MLC_LAT MLC_LON MLC_CLASS MLC_WIND MLC_PRES USA_GUST BOM_GUST BOM_GUST_PER REUNION_GUST REUNION_GUST_PER USA_SEAHGT USA_SEARAD_NE USA_SEARAD_SE USA_SEARAD_SW USA_SEARAD_NW STORM_SPEED STORM_DIR
1929196N21089 1929 43 NI BB NOT_NAMED 1929-07-15 00:00:00 TS 20.6000 89.3000 main 113 113 _________O____ -1 20.6000 89.3000 TC 34 0 0
1929196N21089 1929 43 NI BB NOT_NAMED 1929-07-15 03:00:00 TS 20.6000 89.3000 main 113 113 _________PO___ -1 20.6000 89.3000 TC 36 20.6000 89.3000 2 0 0
1929196N21089 1929 43 NI BB NOT_NAMED 1929-07-15 06:00:00 TS 20.6044 89.2963 main 113 113 _________OP___ -1 20.6000 89.3000 TC 39 20.6110 89.2907 2 0 0
1929196N21089 1929 43 NI BB NOT_NAMED 1929-07-15 09:00:00 TS 20.6075 89.2936 main 113 113 _________PP___ -1 20.6000 89.3000 TC 42 20.6175 89.2851 2 0 0
1929196N21089 1929 43 NI BB NOT_NAMED 1929-07-15 12:00:00 TS 20.6077 89.2935 main 113 113 _________OP___ -1 20.6000 89.3000 TC 45 20.6153 89.2869 2 0 0
1929196N21089 1929 43 NI BB NOT_NAMED 1929-07-15 15:00:00 TS 20.6000 89.3000 main 113 113 _________PO___ -1 20.6000 89.3000 TC 45 20.6000 89.3000 3 0 0
1929196N21089 1929 43 NI BB NOT_NAMED 1929-07-15 18:00:00 TS 20.5858 89.3121 main 113 113 _________OP___ -1 20.6000 89.3000 TC 45 20.5715 89.3243 3 0 162
1929196N21089 1929 43 NI BB NOT_NAMED 1929-07-15 21:00:00 TS 20.5625 89.3299 main 113 113 _________PP___ -1 20.5775 89.3150 TC 45 20.5474 89.3448 3 0 0
1929196N21089 1929 43 NI BB NOT_NAMED 1929-07-16 00:00:00 TS 20.5748 89.3215 main 113 102 _________OP___ -1 20.6000 89.3000 TC 45 20.5496 89.3429 3 1 331
1929196N21089 1929 43 NI BB NOT_NAMED 1929-07-16 03:00:00 TS 20.6600 89.2650 main 102 90 _________PO___ -1 20.7200 89.2300 TC 45 20.6000 89.3000 3 3 326
1929196N21089 1929 43 NI BB NOT_NAMED 1929-07-16 06:00:00 TS 20.8185 89.1447 main 89 67 _________OP___ -1 20.9000 89.1000 TC 45 20.7370 89.1894 3 5 322
1929196N21089 1929 43 NI BB NOT_NAMED 1929-07-16 09:00:00 TS 21.0139 88.9690 main 67 45 _________PP___ -1 21.1076 88.9001 TC 45 20.9201 89.0379 3 5 319
1929196N21089 1929 43 NI BB NOT_NAMED 1929-07-16 12:00:00 TS 21.2091 88.7837 main 45 30 _________OP___ -1 21.3000 88.7000 TC 45 21.1182 88.8675 3 5 319
1929196N21089 1929 43 NI BB NOT_NAMED 1929-07-16 15:00:00 TS 21.3575 88.6462 main 24 24 _________PO___ -1 21.4149 88.5924 TC 45 21.3000 88.7000 3 3 321
1929196N21089 1929 43 NI BB NOT_NAMED 1929-07-16 18:00:00 TS 21.4542 88.5721 main 15 11 _________OP___ -1 21.5000 88.5000 TC 45 21.4085 88.6442 3 2 324
1929196N21089 1929 43 NI BB NOT_NAMED 1929-07-16 21:00:00 TS 21.5453 88.5042 main 11 0 _________PP___ -1 21.5921 88.4248 TC 45 21.4984 88.5837 3 3 310
1929196N21089 1929 43 NI BB NOT_NAMED 1929-07-17 00:00:00 TS 21.6446 88.3282 main 0 0 _________OP___ -1 21.7000 88.2000 TC 45 21.5892 88.4564 3 6 293
1929196N21089 1929 43 NI BB NOT_NAMED 1929-07-17 03:00:00 TS 21.7677 87.9337 main 0 0 _________PO___ -1 21.8353 87.6675 TC 41 21.7000 88.2000 3 10 287
1929196N21089 1929 43 NI BB NOT_NAMED 1929-07-17 06:00:00 TS 21.9196 87.3482 main 0 0 _________OP___ -1 22.0000 87.0000 TC 37 21.8391 87.6964 3 12 286
1929196N21089 1929 43 NI BB NOT_NAMED 1929-07-17 09:00:00 TS 22.0927 86.7153 main 0 0 _________PP___ -1 22.1851 86.3625 TC 33 22.0003 87.0681 3 12 288
1929196N21089 1929 43 NI BB NOT_NAMED 1929-07-17 12:00:00 TS 22.2930 86.1028 main 0 0 _________OP___ -1 22.4000 85.8000 TC 30 22.1860 86.4057 3 11 292
1929196N21089 1929 43 NI BB NOT_NAMED 1929-07-17 15:00:00 TS 22.5173 85.6061 main 0 0 _________PO___ -1 22.6346 85.4122 TC 30 22.4000 85.8000 1 9 301
1929196N21089 1929 43 NI BB NOT_NAMED 1929-07-17 18:00:00 TS 22.7808 85.2269 main 0 0 _________OP___ -1 22.9000 85.1000 TC 30 22.6616 85.3539 1 9 309
1929196N21089 1929 43 NI BB NOT_NAMED 1929-07-17 21:00:00 TS 23.0782 84.8539 main 0 0 _________PP___ -1 23.2075 84.7276 TC 30 22.9489 84.9802 1 9 313
1929196N21089 1929 43 NI BB NOT_NAMED 1929-07-18 00:00:00 TS 23.3684 84.5332 main 0 0 _________OP___ -1 23.5000 84.4000 TC 30 23.2369 84.6664 1 7 316
1929196N21089 1929 43 NI BB NOT_NAMED 1929-07-18 03:00:00 TS 23.6112 84.2886 main 0 0 _________PO___ -1 23.7224 84.1773 TC 30 23.5000 84.4000 1 6 316
1929196N21089 1929 43 NI BB NOT_NAMED 1929-07-18 06:00:00 TS 23.8037 84.0761 main 0 0 _________OP___ -1 23.9000 84.0000 TC 30 23.7074 84.1521 1 5 313
1929196N21089 1929 43 NI BB NOT_NAMED 1929-07-18 09:00:00 TS 23.9722 83.8696 main 0 0 _________PP___ -1 24.0575 83.7924 TC 30 23.8870 83.9467 1 5 312
1929196N21089 1929 43 NI BB NOT_NAMED 1929-07-18 12:00:00 TS 24.1241 83.6840 main 0 0 _________OP___ -1 24.2000 83.6000 TC 30 24.0481 83.7679 1 4 314
1929196N21089 1929 43 NI BB NOT_NAMED 1929-07-18 15:00:00 TS 24.2750 83.5250 main 0 0 _________PO___ -1 24.3499 83.4499 TC 30 24.2000 83.6000 1 4 317
1929196N21089 1929 43 NI BB NOT_NAMED 1929-07-18 18:00:00 TS 24.4264 83.3668 main 0 0 _________OP___ -1 24.5000 83.3000 TC 30 24.3529 83.4336 1 4 314
1929196N21089 1929 43 NI BB NOT_NAMED 1929-07-18 21:00:00 TS 24.5710 83.1934 main 0 0 _________PP___ -1 24.6425 83.1149 TC 30 24.4996 83.2719 1 4 312
1929196N21089 1929 43 NI BB NOT_NAMED 1929-07-19 00:00:00 TS 24.7233 82.9996 main 0 0 _________OP___ -1 24.8000 82.9000 TC 30 24.6466 83.0992 1 5 311
1929196N21089 1929 43 NI BB NOT_NAMED 1929-07-19 03:00:00 TS 24.9000 82.7825 main 0 0 _________PO___ -1 25.0000 82.6650 TC 30 24.8000 82.9000 1 6 310
1929196N21089 1929 43 NI BB NOT_NAMED 1929-07-19 06:00:00 TS 25.0881 82.5209 main 0 0 _________OP___ -1 25.2000 82.4000 TC 30 24.9762 82.6418 1 6 305
1929196N21089 1929 43 NI BB NOT_NAMED 1929-07-19 09:00:00 TS 25.2577 82.2252 main 0 0 _________PP___ -1 25.3576 82.0925 TC 30 25.1578 82.3579 1 6 302
1929196N21089 1929 43 NI BB NOT_NAMED 1929-07-19 12:00:00 TS 25.4178 81.9350 main 0 0 _________OP___ -1 25.5000 81.8000 TC 30 25.3355 82.0699 1 6 304
1929196N21089 1929 43 NI BB NOT_NAMED 1929-07-19 15:00:00 TS 25.5787 81.6925 main 0 0 _________PO___ -1 25.6574 81.5849 TC 30 25.5000 81.8000 1 5 306
1929196N21089 1929 43 NI BB NOT_NAMED 1929-07-19 18:00:00 TS 25.7112 81.4942 main 0 0 _________OP___ -1 25.8000 81.4000 TC 30 25.6446 81.5649 1 4 305
1929196N21089 1929 43 NI BB NOT_NAMED 1929-07-19 21:00:00 TS 25.8275 81.2980 main 0 0 _________PP___ -1 25.9101 81.2051 TC 30 25.7724 81.3599 1 4 302
1929196N21089 1929 43 NI BB NOT_NAMED 1929-07-20 00:00:00 TS 25.9260 81.1167 main 0 0 _________OP___ -1 26.0000 81.0000 TC 30 25.8890 81.1750 1 3 303
1929196N21089 1929 43 NI BB NOT_NAMED 1929-07-20 03:00:00 NR 26.0000 81.0000 main 0 __________O___ -1 TC 26.0000 81.0000 1 3 306

IBTrACS Databaseについて

本データベースは、米国NOAAが公開する1842年以降の世界の熱帯低気圧のベストトラックデータアーカイブInternational Best Track Archive for Climate Stewardship (IBTrACS)を、ウェブで閲覧しやすい形式に変換したものです。

最終更新日:2021-12-03